Wheeling, Louisiana
Current Conditions -  °F | °C
As of 2:35 AM on Friday 26 Dec 2014 (Local Time) from KIER Reporting Station
Overcast Overcast  
Wind Chill: 45°   Ceiling: 4200
Heat Index: 47°   Visibility: 10mi
Dew Point: 41°   Wind: 6mph
Humidity: 79%   Direction: 140°SE
Pressure: 30.13"   Gusts: NA
Location:  31.6668°N, 92.8023°W
Report Text: KIER 260835Z AUTO 14005KT 10SM OVC042 09/05 A3013 RMK AO2 T00850050
Loading
Personal Weather Stations






























Interactive Weather Map New forecast layout! Learn more

10-Day Weather Forecast

Advertisements
Track Severe Weather on mobile